sensor_id;sensor_type;location;lat;lon;timestamp;P1;durP1;ratioP1;P2;durP2;ratioP2
36423;SDS011;22458;45.328;9.514;2023-03-03T00:01:03;9.05;;;7.40;;
36423;SDS011;22458;45.328;9.514;2023-03-03T00:03:29;15.13;;;9.05;;
36423;SDS011;22458;45.328;9.514;2023-03-03T00:05:55;16.08;;;11.50;;
36423;SDS011;22458;45.328;9.514;2023-03-03T00:08:21;16.13;;;12.02;;
36423;SDS011;22458;45.328;9.514;2023-03-03T00:10:47;17.83;;;12.18;;
36423;SDS011;22458;45.328;9.514;2023-03-03T00:13:17;17.17;;;12.27;;
36423;SDS011;22458;45.328;9.514;2023-03-03T00:15:45;19.00;;;12.70;;
36423;SDS011;22458;45.328;9.514;2023-03-03T00:18:14;18.52;;;12.50;;
36423;SDS011;22458;45.328;9.514;2023-03-03T00:20:57;18.50;;;12.38;;
36423;SDS011;22458;45.328;9.514;2023-03-03T00:23:35;17.50;;;13.48;;
36423;SDS011;22458;45.328;9.514;2023-03-03T00:26:14;17.20;;;12.40;;
36423;SDS011;22458;45.328;9.514;2023-03-03T00:28:51;15.25;;;11.45;;
36423;SDS011;22458;45.328;9.514;2023-03-03T00:31:39;16.05;;;11.55;;
36423;SDS011;22458;45.328;9.514;2023-03-03T00:36:42;11.25;;;8.40;;
36423;SDS011;22458;45.328;9.514;2023-03-03T00:41:47;10.52;;;7.38;;
36423;SDS011;22458;45.328;9.514;2023-03-03T00:46:57;9.35;;;7.22;;
36423;SDS011;22458;45.328;9.514;2023-03-03T00:49:37;13.15;;;9.18;;
36423;SDS011;22458;45.328;9.514;2023-03-03T00:52:10;13.35;;;9.63;;
36423;SDS011;22458;45.328;9.514;2023-03-03T00:54:41;11.98;;;7.95;;
36423;SDS011;22458;45.328;9.514;2023-03-03T00:57:06;10.18;;;8.20;;
36423;SDS011;22458;45.328;9.514;2023-03-03T00:59:33;9.75;;;7.50;;
36423;SDS011;22458;45.328;9.514;2023-03-03T01:01:59;11.57;;;7.95;;
36423;SDS011;22458;45.328;9.514;2023-03-03T01:04:25;8.25;;;6.78;;
36423;SDS011;22458;45.328;9.514;2023-03-03T01:06:51;8.23;;;7.30;;
36423;SDS011;22458;45.328;9.514;2023-03-03T01:09:16;9.13;;;6.97;;
36423;SDS011;22458;45.328;9.514;2023-03-03T01:11:42;7.18;;;6.00;;
36423;SDS011;22458;45.328;9.514;2023-03-03T01:14:08;6.30;;;5.22;;
36423;SDS011;22458;45.328;9.514;2023-03-03T01:16:34;6.13;;;5.20;;
36423;SDS011;22458;45.328;9.514;2023-03-03T01:18:59;4.63;;;4.10;;
36423;SDS011;22458;45.328;9.514;2023-03-03T01:21:25;5.13;;;4.55;;
36423;SDS011;22458;45.328;9.514;2023-03-03T01:23:51;6.43;;;5.30;;
36423;SDS011;22458;45.328;9.514;2023-03-03T01:26:17;6.30;;;4.90;;
36423;SDS011;22458;45.328;9.514;2023-03-03T01:28:43;5.78;;;5.13;;
36423;SDS011;22458;45.328;9.514;2023-03-03T01:31:08;7.10;;;5.88;;
36423;SDS011;22458;45.328;9.514;2023-03-03T01:33:35;7.13;;;6.43;;
36423;SDS011;22458;45.328;9.514;2023-03-03T01:36:01;10.00;;;7.72;;
36423;SDS011;22458;45.328;9.514;2023-03-03T01:38:28;9.98;;;8.40;;
36423;SDS011;22458;45.328;9.514;2023-03-03T01:40:55;15.40;;;7.95;;
36423;SDS011;22458;45.328;9.514;2023-03-03T01:43:22;12.38;;;7.95;;
36423;SDS011;22458;45.328;9.514;2023-03-03T01:48:37;9.93;;;7.65;;
36423;SDS011;22458;45.328;9.514;2023-03-03T01:51:23;8.80;;;7.10;;
36423;SDS011;22458;45.328;9.514;2023-03-03T01:54:00;9.55;;;6.97;;
36423;SDS011;22458;45.328;9.514;2023-03-03T01:56:28;8.68;;;6.07;;
36423;SDS011;22458;45.328;9.514;2023-03-03T01:58:58;6.28;;;5.43;;
36423;SDS011;22458;45.328;9.514;2023-03-03T02:01:27;5.93;;;5.32;;
36423;SDS011;22458;45.328;9.514;2023-03-03T02:03:57;7.28;;;5.70;;
36423;SDS011;22458;45.328;9.514;2023-03-03T02:06:24;10.10;;;8.15;;
36423;SDS011;22458;45.328;9.514;2023-03-03T02:09:05;10.68;;;7.97;;
36423;SDS011;22458;45.328;9.514;2023-03-03T02:11:51;8.05;;;6.60;;
36423;SDS011;22458;45.328;9.514;2023-03-03T02:14:21;9.23;;;6.95;;
36423;SDS011;22458;45.328;9.514;2023-03-03T02:16:49;7.25;;;5.65;;
36423;SDS011;22458;45.328;9.514;2023-03-03T02:19:21;7.82;;;6.10;;
36423;SDS011;22458;45.328;9.514;2023-03-03T02:21:58;6.72;;;5.45;;
36423;SDS011;22458;45.328;9.514;2023-03-03T02:24:33;9.13;;;6.55;;
36423;SDS011;22458;45.328;9.514;2023-03-03T02:27:32;8.45;;;6.70;;
36423;SDS011;22458;45.328;9.514;2023-03-03T02:30:07;9.13;;;6.72;;
36423;SDS011;22458;45.328;9.514;2023-03-03T02:32:39;8.50;;;6.32;;
36423;SDS011;22458;45.328;9.514;2023-03-03T02:35:23;8.40;;;6.85;;
36423;SDS011;22458;45.328;9.514;2023-03-03T02:37:52;8.35;;;6.78;;
36423;SDS011;22458;45.328;9.514;2023-03-03T02:40:21;9.23;;;7.40;;
36423;SDS011;22458;45.328;9.514;2023-03-03T02:42:49;9.65;;;7.22;;
36423;SDS011;22458;45.328;9.514;2023-03-03T02:45:18;9.40;;;7.72;;
36423;SDS011;22458;45.328;9.514;2023-03-03T02:47:50;9.57;;;7.57;;
36423;SDS011;22458;45.328;9.514;2023-03-03T02:50:16;9.35;;;7.53;;
36423;SDS011;22458;45.328;9.514;2023-03-03T02:52:42;10.80;;;8.77;;
36423;SDS011;22458;45.328;9.514;2023-03-03T02:55:08;10.27;;;8.38;;
36423;SDS011;22458;45.328;9.514;2023-03-03T02:57:34;11.43;;;8.73;;
36423;SDS011;22458;45.328;9.514;2023-03-03T03:00:00;13.50;;;9.68;;
36423;SDS011;22458;45.328;9.514;2023-03-03T03:02:26;15.15;;;9.77;;
36423;SDS011;22458;45.328;9.514;2023-03-03T03:04:52;12.13;;;9.05;;
36423;SDS011;22458;45.328;9.514;2023-03-03T03:07:21;11.73;;;8.60;;
36423;SDS011;22458;45.328;9.514;2023-03-03T03:09:47;9.82;;;7.63;;
36423;SDS011;22458;45.328;9.514;2023-03-03T03:12:13;9.98;;;8.02;;
36423;SDS011;22458;45.328;9.514;2023-03-03T03:14:40;10.65;;;8.18;;
36423;SDS011;22458;45.328;9.514;2023-03-03T03:17:07;10.25;;;8.20;;
36423;SDS011;22458;45.328;9.514;2023-03-03T03:19:33;17.45;;;11.63;;
36423;SDS011;22458;45.328;9.514;2023-03-03T03:22:00;16.45;;;11.68;;
36423;SDS011;22458;45.328;9.514;2023-03-03T03:24:27;14.32;;;10.55;;
36423;SDS011;22458;45.328;9.514;2023-03-03T03:26:58;13.57;;;10.05;;
36423;SDS011;22458;45.328;9.514;2023-03-03T03:29:26;13.65;;;9.98;;
36423;SDS011;22458;45.328;9.514;2023-03-03T03:31:52;11.95;;;9.73;;
36423;SDS011;22458;45.328;9.514;2023-03-03T03:34:18;12.57;;;9.75;;
36423;SDS011;22458;45.328;9.514;2023-03-03T03:36:43;12.20;;;9.52;;
36423;SDS011;22458;45.328;9.514;2023-03-03T03:39:12;11.50;;;8.55;;
36423;SDS011;22458;45.328;9.514;2023-03-03T03:41:42;14.27;;;10.90;;
36423;SDS011;22458;45.328;9.514;2023-03-03T03:44:08;14.05;;;10.27;;
36423;SDS011;22458;45.328;9.514;2023-03-03T03:46:34;11.00;;;8.80;;
36423;SDS011;22458;45.328;9.514;2023-03-03T03:49:00;12.80;;;9.23;;
36423;SDS011;22458;45.328;9.514;2023-03-03T03:51:26;11.90;;;8.88;;
36423;SDS011;22458;45.328;9.514;2023-03-03T03:53:52;13.25;;;9.60;;
36423;SDS011;22458;45.328;9.514;2023-03-03T03:56:18;12.48;;;8.35;;
36423;SDS011;22458;45.328;9.514;2023-03-03T03:58:46;11.18;;;8.68;;
36423;SDS011;22458;45.328;9.514;2023-03-03T04:01:13;11.43;;;8.60;;
36423;SDS011;22458;45.328;9.514;2023-03-03T04:03:44;11.23;;;8.52;;
36423;SDS011;22458;45.328;9.514;2023-03-03T04:06:14;14.40;;;10.20;;
36423;SDS011;22458;45.328;9.514;2023-03-03T04:08:40;13.77;;;9.60;;
36423;SDS011;22458;45.328;9.514;2023-03-03T04:11:07;22.02;;;14.75;;
36423;SDS011;22458;45.328;9.514;2023-03-03T04:13:33;24.85;;;15.75;;
36423;SDS011;22458;45.328;9.514;2023-03-03T04:16:00;25.38;;;17.15;;
36423;SDS011;22458;45.328;9.514;2023-03-03T04:18:27;27.73;;;18.55;;
36423;SDS011;22458;45.328;9.514;2023-03-03T04:20:54;26.27;;;17.58;;
36423;SDS011;22458;45.328;9.514;2023-03-03T04:23:20;28.58;;;17.60;;
36423;SDS011;22458;45.328;9.514;2023-03-03T04:25:47;25.92;;;17.73;;
36423;SDS011;22458;45.328;9.514;2023-03-03T04:28:14;25.83;;;16.50;;
36423;SDS011;22458;45.328;9.514;2023-03-03T04:30:41;28.58;;;17.38;;
36423;SDS011;22458;45.328;9.514;2023-03-03T04:33:08;27.80;;;18.35;;
36423;SDS011;22458;45.328;9.514;2023-03-03T04:35:37;30.40;;;19.35;;
36423;SDS011;22458;45.328;9.514;2023-03-03T04:38:02;27.67;;;18.05;;
36423;SDS011;22458;45.328;9.514;2023-03-03T04:40:29;29.77;;;18.83;;
36423;SDS011;22458;45.328;9.514;2023-03-03T04:42:55;26.58;;;18.00;;
36423;SDS011;22458;45.328;9.514;2023-03-03T04:45:22;29.35;;;17.55;;
36423;SDS011;22458;45.328;9.514;2023-03-03T04:47:49;28.55;;;18.67;;
36423;SDS011;22458;45.328;9.514;2023-03-03T04:50:15;27.02;;;18.33;;
36423;SDS011;22458;45.328;9.514;2023-03-03T04:52:41;25.90;;;17.13;;
36423;SDS011;22458;45.328;9.514;2023-03-03T04:55:08;28.50;;;18.35;;
36423;SDS011;22458;45.328;9.514;2023-03-03T04:57:35;28.58;;;18.35;;
36423;SDS011;22458;45.328;9.514;2023-03-03T05:00:01;28.25;;;18.23;;
36423;SDS011;22458;45.328;9.514;2023-03-03T05:02:28;28.73;;;18.52;;
36423;SDS011;22458;45.328;9.514;2023-03-03T05:04:54;27.63;;;18.23;;
36423;SDS011;22458;45.328;9.514;2023-03-03T05:07:20;26.70;;;17.60;;
36423;SDS011;22458;45.328;9.514;2023-03-03T05:09:46;23.00;;;16.17;;
36423;SDS011;22458;45.328;9.514;2023-03-03T05:12:11;20.60;;;14.75;;
36423;SDS011;22458;45.328;9.514;2023-03-03T05:14:37;19.85;;;14.60;;
36423;SDS011;22458;45.328;9.514;2023-03-03T05:17:03;19.70;;;14.15;;
36423;SDS011;22458;45.328;9.514;2023-03-03T05:19:30;14.90;;;11.38;;
36423;SDS011;22458;45.328;9.514;2023-03-03T05:21:55;14.13;;;10.65;;
36423;SDS011;22458;45.328;9.514;2023-03-03T05:24:21;20.52;;;14.73;;
36423;SDS011;22458;45.328;9.514;2023-03-03T05:26:47;20.75;;;13.88;;
36423;SDS011;22458;45.328;9.514;2023-03-03T05:29:13;26.52;;;16.80;;
36423;SDS011;22458;45.328;9.514;2023-03-03T05:31:39;22.35;;;15.25;;
36423;SDS011;22458;45.328;9.514;2023-03-03T05:34:05;23.35;;;16.27;;
36423;SDS011;22458;45.328;9.514;2023-03-03T05:36:31;27.27;;;16.52;;
36423;SDS011;22458;45.328;9.514;2023-03-03T05:38:57;26.67;;;17.25;;
36423;SDS011;22458;45.328;9.514;2023-03-03T05:41:22;25.05;;;15.93;;
36423;SDS011;22458;45.328;9.514;2023-03-03T05:43:48;29.02;;;18.05;;
36423;SDS011;22458;45.328;9.514;2023-03-03T05:46:14;23.63;;;16.52;;
36423;SDS011;22458;45.328;9.514;2023-03-03T05:48:41;25.45;;;16.05;;
36423;SDS011;22458;45.328;9.514;2023-03-03T05:51:07;24.58;;;16.23;;
36423;SDS011;22458;45.328;9.514;2023-03-03T05:53:33;25.42;;;16.60;;
36423;SDS011;22458;45.328;9.514;2023-03-03T05:55:58;22.88;;;15.15;;
36423;SDS011;22458;45.328;9.514;2023-03-03T05:58:24;24.50;;;16.27;;
36423;SDS011;22458;45.328;9.514;2023-03-03T06:00:50;17.33;;;12.63;;
36423;SDS011;22458;45.328;9.514;2023-03-03T06:03:16;19.27;;;12.82;;
36423;SDS011;22458;45.328;9.514;2023-03-03T06:05:42;22.70;;;14.85;;
36423;SDS011;22458;45.328;9.514;2023-03-03T06:08:08;21.73;;;14.02;;
36423;SDS011;22458;45.328;9.514;2023-03-03T06:10:34;19.05;;;13.48;;
36423;SDS011;22458;45.328;9.514;2023-03-03T06:13:03;20.70;;;14.38;;
36423;SDS011;22458;45.328;9.514;2023-03-03T06:15:29;19.88;;;13.98;;
36423;SDS011;22458;45.328;9.514;2023-03-03T06:17:54;17.95;;;14.02;;
36423;SDS011;22458;45.328;9.514;2023-03-03T06:20:20;20.80;;;14.40;;
36423;SDS011;22458;45.328;9.514;2023-03-03T06:22:46;23.10;;;14.32;;
36423;SDS011;22458;45.328;9.514;2023-03-03T06:25:12;16.25;;;12.00;;
36423;SDS011;22458;45.328;9.514;2023-03-03T06:27:38;18.15;;;13.13;;
36423;SDS011;22458;45.328;9.514;2023-03-03T06:30:04;18.15;;;13.07;;
36423;SDS011;22458;45.328;9.514;2023-03-03T06:32:30;19.27;;;13.13;;
36423;SDS011;22458;45.328;9.514;2023-03-03T06:34:56;19.02;;;13.80;;
36423;SDS011;22458;45.328;9.514;2023-03-03T06:37:22;18.40;;;13.82;;
36423;SDS011;22458;45.328;9.514;2023-03-03T06:39:47;18.40;;;12.93;;
36423;SDS011;22458;45.328;9.514;2023-03-03T06:42:13;20.33;;;13.75;;
36423;SDS011;22458;45.328;9.514;2023-03-03T06:44:39;18.70;;;12.35;;
36423;SDS011;22458;45.328;9.514;2023-03-03T06:47:05;17.73;;;12.35;;
36423;SDS011;22458;45.328;9.514;2023-03-03T06:49:30;22.00;;;13.68;;
36423;SDS011;22458;45.328;9.514;2023-03-03T06:51:57;22.75;;;15.00;;
36423;SDS011;22458;45.328;9.514;2023-03-03T06:54:28;21.88;;;13.63;;
36423;SDS011;22458;45.328;9.514;2023-03-03T06:56:57;19.70;;;14.80;;
36423;SDS011;22458;45.328;9.514;2023-03-03T06:59:25;19.08;;;12.55;;
36423;SDS011;22458;45.328;9.514;2023-03-03T07:01:52;17.50;;;12.10;;
36423;SDS011;22458;45.328;9.514;2023-03-03T07:04:28;19.95;;;13.05;;
36423;SDS011;22458;45.328;9.514;2023-03-03T07:06:57;17.05;;;12.68;;
36423;SDS011;22458;45.328;9.514;2023-03-03T07:09:32;16.65;;;11.52;;
36423;SDS011;22458;45.328;9.514;2023-03-03T07:12:40;18.75;;;12.52;;
36423;SDS011;22458;45.328;9.514;2023-03-03T07:17:34;22.67;;;14.32;;
36423;SDS011;22458;45.328;9.514;2023-03-03T07:20:39;19.92;;;14.43;;
36423;SDS011;22458;45.328;9.514;2023-03-03T07:25:46;19.42;;;13.02;;
36423;SDS011;22458;45.328;9.514;2023-03-03T07:30:51;20.35;;;14.60;;
36423;SDS011;22458;45.328;9.514;2023-03-03T07:33:21;21.40;;;13.70;;
36423;SDS011;22458;45.328;9.514;2023-03-03T07:36:21;18.25;;;13.90;;
36423;SDS011;22458;45.328;9.514;2023-03-03T07:38:53;21.65;;;13.45;;
36423;SDS011;22458;45.328;9.514;2023-03-03T07:41:20;18.33;;;14.60;;
36423;SDS011;22458;45.328;9.514;2023-03-03T07:49:21;19.95;;;14.55;;
36423;SDS011;22458;45.328;9.514;2023-03-03T07:51:47;21.15;;;14.65;;
36423;SDS011;22458;45.328;9.514;2023-03-03T08:01:20;23.10;;;15.23;;
36423;SDS011;22458;45.328;9.514;2023-03-03T08:05:43;22.13;;;15.05;;
36423;SDS011;22458;45.328;9.514;2023-03-03T08:10:55;22.48;;;15.48;;
36423;SDS011;22458;45.328;9.514;2023-03-03T08:13:24;21.00;;;15.38;;
36423;SDS011;22458;45.328;9.514;2023-03-03T08:16:02;21.90;;;15.63;;
36423;SDS011;22458;45.328;9.514;2023-03-03T08:18:35;25.65;;;15.80;;
36423;SDS011;22458;45.328;9.514;2023-03-03T08:21:05;21.50;;;15.75;;
36423;SDS011;22458;45.328;9.514;2023-03-03T08:23:43;22.80;;;16.15;;
36423;SDS011;22458;45.328;9.514;2023-03-03T08:26:09;22.02;;;15.80;;
36423;SDS011;22458;45.328;9.514;2023-03-03T08:28:39;22.02;;;15.07;;
36423;SDS011;22458;45.328;9.514;2023-03-03T08:31:04;22.77;;;16.65;;
36423;SDS011;22458;45.328;9.514;2023-03-03T08:33:31;20.90;;;15.85;;
36423;SDS011;22458;45.328;9.514;2023-03-03T08:35:56;21.50;;;16.58;;
36423;SDS011;22458;45.328;9.514;2023-03-03T08:38:22;26.05;;;17.10;;
36423;SDS011;22458;45.328;9.514;2023-03-03T08:40:48;24.23;;;16.67;;
36423;SDS011;22458;45.328;9.514;2023-03-03T08:43:14;22.33;;;16.45;;
36423;SDS011;22458;45.328;9.514;2023-03-03T08:45:45;23.67;;;17.27;;
36423;SDS011;22458;45.328;9.514;2023-03-03T08:48:12;21.35;;;16.10;;
36423;SDS011;22458;45.328;9.514;2023-03-03T08:50:38;22.85;;;17.00;;
36423;SDS011;22458;45.328;9.514;2023-03-03T08:53:05;23.38;;;16.25;;
36423;SDS011;22458;45.328;9.514;2023-03-03T08:55:31;22.48;;;16.45;;
36423;SDS011;22458;45.328;9.514;2023-03-03T08:57:57;22.23;;;16.15;;
36423;SDS011;22458;45.328;9.514;2023-03-03T09:00:23;23.15;;;16.55;;
36423;SDS011;22458;45.328;9.514;2023-03-03T09:02:50;24.05;;;17.02;;
36423;SDS011;22458;45.328;9.514;2023-03-03T09:05:17;21.17;;;15.23;;
36423;SDS011;22458;45.328;9.514;2023-03-03T09:07:45;21.38;;;15.70;;
36423;SDS011;22458;45.328;9.514;2023-03-03T09:10:13;20.75;;;16.05;;
36423;SDS011;22458;45.328;9.514;2023-03-03T09:12:42;20.48;;;15.55;;
36423;SDS011;22458;45.328;9.514;2023-03-03T09:15:23;20.80;;;16.05;;
36423;SDS011;22458;45.328;9.514;2023-03-03T09:17:49;19.92;;;15.23;;
36423;SDS011;22458;45.328;9.514;2023-03-03T09:28:41;25.13;;;17.45;;
36423;SDS011;22458;45.328;9.514;2023-03-03T09:31:08;21.42;;;16.40;;
36423;SDS011;22458;45.328;9.514;2023-03-03T09:33:49;22.55;;;16.98;;
36423;SDS011;22458;45.328;9.514;2023-03-03T09:36:23;21.83;;;16.38;;
36423;SDS011;22458;45.328;9.514;2023-03-03T09:38:54;21.08;;;16.30;;
36423;SDS011;22458;45.328;9.514;2023-03-03T09:41:24;24.67;;;16.55;;
36423;SDS011;22458;45.328;9.514;2023-03-03T09:59:58;21.45;;;14.88;;
36423;SDS011;22458;45.328;9.514;2023-03-03T10:02:46;22.85;;;15.07;;
36423;SDS011;22458;45.328;9.514;2023-03-03T10:05:52;19.48;;;14.88;;
36423;SDS011;22458;45.328;9.514;2023-03-03T10:16:43;21.92;;;15.95;;
36423;SDS011;22458;45.328;9.514;2023-03-03T10:24:39;20.38;;;14.88;;
36423;SDS011;22458;45.328;9.514;2023-03-03T10:35:30;20.48;;;14.95;;
36423;SDS011;22458;45.328;9.514;2023-03-03T10:38:14;17.20;;;13.45;;
36423;SDS011;22458;45.328;9.514;2023-03-03T10:46:21;17.73;;;14.13;;
36423;SDS011;22458;45.328;9.514;2023-03-03T10:55:33;18.00;;;13.63;;
36423;SDS011;22458;45.328;9.514;2023-03-03T10:58:09;18.67;;;13.35;;
36423;SDS011;22458;45.328;9.514;2023-03-03T11:08:53;17.73;;;13.85;;
36423;SDS011;22458;45.328;9.514;2023-03-03T11:14:23;18.92;;;13.70;;
36423;SDS011;22458;45.328;9.514;2023-03-03T11:33:13;16.38;;;12.52;;
36423;SDS011;22458;45.328;9.514;2023-03-03T11:38:45;16.60;;;13.57;;
36423;SDS011;22458;45.328;9.514;2023-03-03T11:44:26;17.42;;;12.88;;
36423;SDS011;22458;45.328;9.514;2023-03-03T11:49:55;13.20;;;11.20;;
36423;SDS011;22458;45.328;9.514;2023-03-03T11:52:35;15.23;;;11.30;;
36423;SDS011;22458;45.328;9.514;2023-03-03T11:57:50;13.80;;;11.02;;
36423;SDS011;22458;45.328;9.514;2023-03-03T12:03:40;16.17;;;11.48;;
36423;SDS011;22458;45.328;9.514;2023-03-03T12:48:16;11.00;;;8.43;;
36423;SDS011;22458;45.328;9.514;2023-03-03T13:16:11;9.77;;;7.32;;
36423;SDS011;22458;45.328;9.514;2023-03-03T13:21:54;10.45;;;8.15;;
36423;SDS011;22458;45.328;9.514;2023-03-03T13:24:43;8.90;;;7.07;;
36423;SDS011;22458;45.328;9.514;2023-03-03T13:27:19;7.72;;;5.82;;
36423;SDS011;22458;45.328;9.514;2023-03-03T13:32:42;15.07;;;5.93;;
36423;SDS011;22458;45.328;9.514;2023-03-03T13:38:03;6.53;;;5.80;;
36423;SDS011;22458;45.328;9.514;2023-03-03T13:40:36;8.90;;;7.43;;
36423;SDS011;22458;45.328;9.514;2023-03-03T13:43:25;11.60;;;7.53;;
36423;SDS011;22458;45.328;9.514;2023-03-03T13:46:33;10.75;;;8.05;;
36423;SDS011;22458;45.328;9.514;2023-03-03T13:51:48;9.38;;;7.88;;
36423;SDS011;22458;45.328;9.514;2023-03-03T13:54:27;10.05;;;7.55;;
36423;SDS011;22458;45.328;9.514;2023-03-03T14:05:29;9.80;;;7.00;;
36423;SDS011;22458;45.328;9.514;2023-03-03T14:10:58;11.57;;;8.10;;
36423;SDS011;22458;45.328;9.514;2023-03-03T14:13:58;11.65;;;7.25;;
36423;SDS011;22458;45.328;9.514;2023-03-03T14:16:57;8.60;;;6.95;;
36423;SDS011;22458;45.328;9.514;2023-03-03T14:22:26;14.93;;;7.78;;
36423;SDS011;22458;45.328;9.514;2023-03-03T14:25:15;9.63;;;7.30;;
36423;SDS011;22458;45.328;9.514;2023-03-03T14:35:32;8.43;;;7.00;;
36423;SDS011;22458;45.328;9.514;2023-03-03T14:38:19;9.05;;;7.10;;
36423;SDS011;22458;45.328;9.514;2023-03-03T14:41:11;10.95;;;7.25;;
36423;SDS011;22458;45.328;9.514;2023-03-03T14:44:01;11.07;;;7.78;;
36423;SDS011;22458;45.328;9.514;2023-03-03T14:49:36;9.95;;;7.40;;
36423;SDS011;22458;45.328;9.514;2023-03-03T14:52:24;9.07;;;7.35;;
36423;SDS011;22458;45.328;9.514;2023-03-03T14:54:55;8.25;;;7.32;;
36423;SDS011;22458;45.328;9.514;2023-03-03T15:00:39;9.98;;;7.15;;
36423;SDS011;22458;45.328;9.514;2023-03-03T15:05:42;12.57;;;7.78;;
36423;SDS011;22458;45.328;9.514;2023-03-03T15:08:14;10.73;;;7.15;;
36423;SDS011;22458;45.328;9.514;2023-03-03T15:10:41;10.45;;;7.25;;
36423;SDS011;22458;45.328;9.514;2023-03-03T15:18:24;9.98;;;7.57;;
36423;SDS011;22458;45.328;9.514;2023-03-03T15:21:11;9.75;;;6.95;;
36423;SDS011;22458;45.328;9.514;2023-03-03T15:23:49;9.30;;;7.10;;
36423;SDS011;22458;45.328;9.514;2023-03-03T15:26:32;8.98;;;6.50;;
36423;SDS011;22458;45.328;9.514;2023-03-03T15:29:16;11.50;;;7.50;;
36423;SDS011;22458;45.328;9.514;2023-03-03T15:32:00;7.63;;;6.78;;
36423;SDS011;22458;45.328;9.514;2023-03-03T15:34:53;9.65;;;7.60;;
36423;SDS011;22458;45.328;9.514;2023-03-03T15:37:41;10.27;;;7.88;;
36423;SDS011;22458;45.328;9.514;2023-03-03T15:40:28;11.05;;;7.53;;
36423;SDS011;22458;45.328;9.514;2023-03-03T15:43:13;8.88;;;7.32;;
36423;SDS011;22458;45.328;9.514;2023-03-03T15:51:52;15.05;;;7.10;;
36423;SDS011;22458;45.328;9.514;2023-03-03T15:54:59;9.75;;;6.53;;
36423;SDS011;22458;45.328;9.514;2023-03-03T15:57:50;8.57;;;6.97;;
36423;SDS011;22458;45.328;9.514;2023-03-03T16:03:39;8.68;;;6.75;;
36423;SDS011;22458;45.328;9.514;2023-03-03T16:11:43;9.65;;;6.53;;
36423;SDS011;22458;45.328;9.514;2023-03-03T16:17:23;10.73;;;7.70;;
36423;SDS011;22458;45.328;9.514;2023-03-03T16:28:12;9.73;;;6.47;;
36423;SDS011;22458;45.328;9.514;2023-03-03T16:31:03;8.90;;;7.50;;
36423;SDS011;22458;45.328;9.514;2023-03-03T16:33:38;9.15;;;7.30;;
36423;SDS011;22458;45.328;9.514;2023-03-03T16:36:14;7.18;;;6.25;;
36423;SDS011;22458;45.328;9.514;2023-03-03T16:47:18;8.35;;;6.93;;
36423;SDS011;22458;45.328;9.514;2023-03-03T16:52:42;7.78;;;6.65;;
36423;SDS011;22458;45.328;9.514;2023-03-03T16:55:14;8.75;;;7.07;;
36423;SDS011;22458;45.328;9.514;2023-03-03T16:57:49;11.85;;;7.82;;
36423;SDS011;22458;45.328;9.514;2023-03-03T17:30:29;13.52;;;8.05;;
36423;SDS011;22458;45.328;9.514;2023-03-03T17:33:41;11.32;;;7.10;;
36423;SDS011;22458;45.328;9.514;2023-03-03T17:44:45;12.00;;;7.93;;
36423;SDS011;22458;45.328;9.514;2023-03-03T18:01:18;10.23;;;8.05;;
36423;SDS011;22458;45.328;9.514;2023-03-03T18:22:17;14.43;;;9.15;;
36423;SDS011;22458;45.328;9.514;2023-03-03T18:32:41;11.20;;;8.60;;
36423;SDS011;22458;45.328;9.514;2023-03-03T18:41:00;13.55;;;8.55;;
36423;SDS011;22458;45.328;9.514;2023-03-03T18:46:46;10.40;;;8.20;;
36423;SDS011;22458;45.328;9.514;2023-03-03T18:49:14;15.40;;;9.38;;
36423;SDS011;22458;45.328;9.514;2023-03-03T19:07:13;14.07;;;10.65;;
36423;SDS011;22458;45.328;9.514;2023-03-03T19:09:44;15.45;;;10.52;;
36423;SDS011;22458;45.328;9.514;2023-03-03T19:12:15;13.93;;;10.05;;
36423;SDS011;22458;45.328;9.514;2023-03-03T19:14:45;16.83;;;10.63;;
36423;SDS011;22458;45.328;9.514;2023-03-03T19:22:26;11.48;;;8.73;;
36423;SDS011;22458;45.328;9.514;2023-03-03T19:30:44;12.38;;;8.18;;
36423;SDS011;22458;45.328;9.514;2023-03-03T19:35:58;16.10;;;10.50;;
36423;SDS011;22458;45.328;9.514;2023-03-03T19:38:35;14.00;;;10.02;;
36423;SDS011;22458;45.328;9.514;2023-03-03T19:44:07;13.43;;;8.68;;
36423;SDS011;22458;45.328;9.514;2023-03-03T19:52:24;12.65;;;10.10;;
36423;SDS011;22458;45.328;9.514;2023-03-03T19:57:35;10.98;;;9.38;;
36423;SDS011;22458;45.328;9.514;2023-03-03T20:00:20;12.02;;;8.73;;
36423;SDS011;22458;45.328;9.514;2023-03-03T20:09:00;11.30;;;9.20;;
36423;SDS011;22458;45.328;9.514;2023-03-03T20:17:30;13.65;;;9.35;;
36423;SDS011;22458;45.328;9.514;2023-03-03T20:19:54;13.57;;;10.35;;
36423;SDS011;22458;45.328;9.514;2023-03-03T20:22:53;14.38;;;10.23;;
36423;SDS011;22458;45.328;9.514;2023-03-03T20:25:28;15.50;;;10.68;;
36423;SDS011;22458;45.328;9.514;2023-03-03T20:33:49;16.85;;;11.07;;
36423;SDS011;22458;45.328;9.514;2023-03-03T20:36:35;14.20;;;11.03;;
36423;SDS011;22458;45.328;9.514;2023-03-03T20:39:24;17.10;;;11.38;;
36423;SDS011;22458;45.328;9.514;2023-03-03T20:44:52;13.20;;;10.10;;
36423;SDS011;22458;45.328;9.514;2023-03-03T20:50:39;10.10;;;8.10;;
36423;SDS011;22458;45.328;9.514;2023-03-03T20:53:25;11.20;;;7.75;;
36423;SDS011;22458;45.328;9.514;2023-03-03T21:01:35;10.93;;;7.95;;
36423;SDS011;22458;45.328;9.514;2023-03-03T21:06:45;11.52;;;8.35;;
36423;SDS011;22458;45.328;9.514;2023-03-03T21:09:34;13.63;;;9.00;;
36423;SDS011;22458;45.328;9.514;2023-03-03T21:12:01;13.07;;;9.45;;
36423;SDS011;22458;45.328;9.514;2023-03-03T21:14:36;11.05;;;7.97;;
36423;SDS011;22458;45.328;9.514;2023-03-03T21:19:52;12.00;;;8.95;;
36423;SDS011;22458;45.328;9.514;2023-03-03T21:22:17;11.40;;;8.75;;
36423;SDS011;22458;45.328;9.514;2023-03-03T21:24:47;14.07;;;9.35;;
36423;SDS011;22458;45.328;9.514;2023-03-03T21:27:34;11.65;;;8.57;;
36423;SDS011;22458;45.328;9.514;2023-03-03T21:32:42;13.38;;;9.90;;
36423;SDS011;22458;45.328;9.514;2023-03-03T21:35:10;15.57;;;10.52;;
36423;SDS011;22458;45.328;9.514;2023-03-03T21:37:54;13.48;;;9.85;;
36423;SDS011;22458;45.328;9.514;2023-03-03T21:40:25;12.27;;;9.45;;
36423;SDS011;22458;45.328;9.514;2023-03-03T21:42:54;14.70;;;9.85;;
36423;SDS011;22458;45.328;9.514;2023-03-03T21:45:22;12.20;;;9.93;;
36423;SDS011;22458;45.328;9.514;2023-03-03T21:47:48;13.20;;;8.73;;
36423;SDS011;22458;45.328;9.514;2023-03-03T21:50:15;12.25;;;9.15;;
36423;SDS011;22458;45.328;9.514;2023-03-03T21:52:44;11.02;;;8.43;;
36423;SDS011;22458;45.328;9.514;2023-03-03T21:55:10;13.68;;;10.10;;
36423;SDS011;22458;45.328;9.514;2023-03-03T21:57:35;12.60;;;9.55;;
36423;SDS011;22458;45.328;9.514;2023-03-03T22:00:03;12.82;;;8.65;;
36423;SDS011;22458;45.328;9.514;2023-03-03T22:02:33;12.90;;;9.90;;
36423;SDS011;22458;45.328;9.514;2023-03-03T22:04:59;15.45;;;9.48;;
36423;SDS011;22458;45.328;9.514;2023-03-03T22:07:27;12.68;;;9.10;;
36423;SDS011;22458;45.328;9.514;2023-03-03T22:09:53;13.43;;;9.70;;
36423;SDS011;22458;45.328;9.514;2023-03-03T22:12:18;13.60;;;10.00;;
36423;SDS011;22458;45.328;9.514;2023-03-03T22:14:44;12.68;;;9.20;;
36423;SDS011;22458;45.328;9.514;2023-03-03T22:17:10;11.80;;;9.15;;
36423;SDS011;22458;45.328;9.514;2023-03-03T22:19:35;14.00;;;9.77;;
36423;SDS011;22458;45.328;9.514;2023-03-03T22:22:02;12.27;;;9.57;;
36423;SDS011;22458;45.328;9.514;2023-03-03T22:24:29;14.38;;;10.00;;
36423;SDS011;22458;45.328;9.514;2023-03-03T22:26:55;11.35;;;8.75;;
36423;SDS011;22458;45.328;9.514;2023-03-03T22:29:21;15.95;;;9.70;;
36423;SDS011;22458;45.328;9.514;2023-03-03T22:31:47;13.23;;;9.65;;